sensor_id;sensor_type;location;lat;lon;timestamp;temperature;humidity
7129;DHT22;3606;52.930;8.644;2022-08-30T00:02:05;12.40;99.90
7129;DHT22;3606;52.930;8.644;2022-08-30T00:04:31;12.40;99.90
7129;DHT22;3606;52.930;8.644;2022-08-30T00:06:56;12.30;99.90
7129;DHT22;3606;52.930;8.644;2022-08-30T00:09:22;12.30;99.90
7129;DHT22;3606;52.930;8.644;2022-08-30T00:11:48;12.30;99.90
7129;DHT22;3606;52.930;8.644;2022-08-30T00:14:16;12.30;99.90
7129;DHT22;3606;52.930;8.644;2022-08-30T00:16:42;12.20;99.90
7129;DHT22;3606;52.930;8.644;2022-08-30T00:19:08;12.20;99.90
7129;DHT22;3606;52.930;8.644;2022-08-30T00:21:33;12.20;99.90
7129;DHT22;3606;52.930;8.644;2022-08-30T00:23:59;12.10;99.90
7129;DHT22;3606;52.930;8.644;2022-08-30T00:26:24;12.00;99.90
7129;DHT22;3606;52.930;8.644;2022-08-30T00:28:50;12.00;99.90
7129;DHT22;3606;52.930;8.644;2022-08-30T00:31:16;11.90;99.90
7129;DHT22;3606;52.930;8.644;2022-08-30T00:33:42;11.90;99.90
7129;DHT22;3606;52.930;8.644;2022-08-30T00:36:07;11.80;99.90
7129;DHT22;3606;52.930;8.644;2022-08-30T00:38:33;11.80;99.90
7129;DHT22;3606;52.930;8.644;2022-08-30T00:40:58;11.80;99.90
7129;DHT22;3606;52.930;8.644;2022-08-30T00:43:30;11.70;99.90
7129;DHT22;3606;52.930;8.644;2022-08-30T00:45:56;11.70;99.90
7129;DHT22;3606;52.930;8.644;2022-08-30T00:48:22;11.70;99.90
7129;DHT22;3606;52.930;8.644;2022-08-30T00:50:53;11.60;99.90
7129;DHT22;3606;52.930;8.644;2022-08-30T00:53:23;11.60;99.90
7129;DHT22;3606;52.930;8.644;2022-08-30T00:55:49;11.60;99.90
7129;DHT22;3606;52.930;8.644;2022-08-30T00:58:18;11.60;99.90
7129;DHT22;3606;52.930;8.644;2022-08-30T01:00:48;11.50;99.90
7129;DHT22;3606;52.930;8.644;2022-08-30T01:03:14;11.50;99.90
7129;DHT22;3606;52.930;8.644;2022-08-30T01:05:40;11.40;99.90
7129;DHT22;3606;52.930;8.644;2022-08-30T01:08:06;11.40;99.90
7129;DHT22;3606;52.930;8.644;2022-08-30T01:10:33;11.40;99.90
7129;DHT22;3606;52.930;8.644;2022-08-30T01:13:01;11.40;99.90
7129;DHT22;3606;52.930;8.644;2022-08-30T01:15:27;11.40;99.90
7129;DHT22;3606;52.930;8.644;2022-08-30T01:17:54;11.40;99.90
7129;DHT22;3606;52.930;8.644;2022-08-30T01:20:24;11.40;99.90
7129;DHT22;3606;52.930;8.644;2022-08-30T01:25:23;11.30;99.90
7129;DHT22;3606;52.930;8.644;2022-08-30T01:27:56;11.30;99.90
7129;DHT22;3606;52.930;8.644;2022-08-30T01:30:23;11.30;99.90
7129;DHT22;3606;52.930;8.644;2022-08-30T01:32:52;11.20;99.90
7129;DHT22;3606;52.930;8.644;2022-08-30T01:35:20;11.20;99.90
7129;DHT22;3606;52.930;8.644;2022-08-30T01:37:46;11.20;99.90
7129;DHT22;3606;52.930;8.644;2022-08-30T01:40:13;11.20;99.90
7129;DHT22;3606;52.930;8.644;2022-08-30T01:42:40;11.20;99.90
7129;DHT22;3606;52.930;8.644;2022-08-30T01:45:07;11.20;99.90
7129;DHT22;3606;52.930;8.644;2022-08-30T01:47:33;11.20;99.90
7129;DHT22;3606;52.930;8.644;2022-08-30T01:49:59;11.10;99.90
7129;DHT22;3606;52.930;8.644;2022-08-30T01:52:25;11.10;99.90
7129;DHT22;3606;52.930;8.644;2022-08-30T01:54:52;11.00;99.90
7129;DHT22;3606;52.930;8.644;2022-08-30T01:57:19;11.10;99.90
7129;DHT22;3606;52.930;8.644;2022-08-30T01:59:46;11.10;99.90
7129;DHT22;3606;52.930;8.644;2022-08-30T02:02:19;11.10;99.90
7129;DHT22;3606;52.930;8.644;2022-08-30T02:04:46;11.10;99.90
7129;DHT22;3606;52.930;8.644;2022-08-30T02:07:11;11.10;99.90
7129;DHT22;3606;52.930;8.644;2022-08-30T02:09:37;11.10;99.90
7129;DHT22;3606;52.930;8.644;2022-08-30T02:12:04;11.10;99.90
7129;DHT22;3606;52.930;8.644;2022-08-30T02:14:32;11.10;99.90
7129;DHT22;3606;52.930;8.644;2022-08-30T02:16:58;11.10;99.90
7129;DHT22;3606;52.930;8.644;2022-08-30T02:19:23;11.20;99.90
7129;DHT22;3606;52.930;8.644;2022-08-30T02:21:49;11.20;99.90
7129;DHT22;3606;52.930;8.644;2022-08-30T02:24:14;11.20;99.90
7129;DHT22;3606;52.930;8.644;2022-08-30T02:26:40;11.10;99.90
7129;DHT22;3606;52.930;8.644;2022-08-30T02:29:07;11.10;99.90
7129;DHT22;3606;52.930;8.644;2022-08-30T02:31:32;11.10;99.90
7129;DHT22;3606;52.930;8.644;2022-08-30T02:33:58;11.10;99.90
7129;DHT22;3606;52.930;8.644;2022-08-30T02:36:23;11.00;99.90
7129;DHT22;3606;52.930;8.644;2022-08-30T02:38:49;11.00;99.90
7129;DHT22;3606;52.930;8.644;2022-08-30T02:41:16;10.90;99.90
7129;DHT22;3606;52.930;8.644;2022-08-30T02:43:42;10.90;99.90
7129;DHT22;3606;52.930;8.644;2022-08-30T02:46:07;10.90;99.90
7129;DHT22;3606;52.930;8.644;2022-08-30T02:48:33;10.90;99.90
7129;DHT22;3606;52.930;8.644;2022-08-30T02:51:11;10.80;99.90
7129;DHT22;3606;52.930;8.644;2022-08-30T02:53:37;10.70;99.90
7129;DHT22;3606;52.930;8.644;2022-08-30T02:56:03;10.70;99.90
7129;DHT22;3606;52.930;8.644;2022-08-30T02:58:29;10.60;99.90
7129;DHT22;3606;52.930;8.644;2022-08-30T03:00:54;10.50;99.90
7129;DHT22;3606;52.930;8.644;2022-08-30T03:03:20;10.50;99.90
7129;DHT22;3606;52.930;8.644;2022-08-30T03:05:46;10.50;99.90
7129;DHT22;3606;52.930;8.644;2022-08-30T03:08:11;10.50;99.90
7129;DHT22;3606;52.930;8.644;2022-08-30T03:10:37;10.40;99.90
7129;DHT22;3606;52.930;8.644;2022-08-30T03:13:03;10.40;99.90
7129;DHT22;3606;52.930;8.644;2022-08-30T03:15:32;10.30;99.90
7129;DHT22;3606;52.930;8.644;2022-08-30T03:17:57;10.30;99.90
7129;DHT22;3606;52.930;8.644;2022-08-30T03:20:23;10.30;99.90
7129;DHT22;3606;52.930;8.644;2022-08-30T03:22:49;10.30;99.90
7129;DHT22;3606;52.930;8.644;2022-08-30T03:25:15;10.20;99.90
7129;DHT22;3606;52.930;8.644;2022-08-30T03:27:41;10.20;99.90
7129;DHT22;3606;52.930;8.644;2022-08-30T03:30:07;10.10;99.90
7129;DHT22;3606;52.930;8.644;2022-08-30T03:32:33;10.20;99.90
7129;DHT22;3606;52.930;8.644;2022-08-30T03:34:59;10.30;99.90
7129;DHT22;3606;52.930;8.644;2022-08-30T03:37:25;10.20;99.90
7129;DHT22;3606;52.930;8.644;2022-08-30T03:39:52;10.20;99.90
7129;DHT22;3606;52.930;8.644;2022-08-30T03:42:18;10.10;99.90
7129;DHT22;3606;52.930;8.644;2022-08-30T03:44:44;10.10;99.90
7129;DHT22;3606;52.930;8.644;2022-08-30T03:47:10;10.10;99.90
7129;DHT22;3606;52.930;8.644;2022-08-30T03:49:36;10.10;99.90
7129;DHT22;3606;52.930;8.644;2022-08-30T03:52:02;10.10;99.90
7129;DHT22;3606;52.930;8.644;2022-08-30T03:54:28;10.10;99.90
7129;DHT22;3606;52.930;8.644;2022-08-30T03:56:54;10.10;99.90
7129;DHT22;3606;52.930;8.644;2022-08-30T03:59:20;10.10;99.90
7129;DHT22;3606;52.930;8.644;2022-08-30T04:01:46;10.00;99.90
7129;DHT22;3606;52.930;8.644;2022-08-30T04:04:12;10.00;99.90
7129;DHT22;3606;52.930;8.644;2022-08-30T04:06:38;9.90;99.90
7129;DHT22;3606;52.930;8.644;2022-08-30T04:09:04;9.90;99.90
7129;DHT22;3606;52.930;8.644;2022-08-30T04:11:30;9.80;99.90
7129;DHT22;3606;52.930;8.644;2022-08-30T04:13:55;9.80;99.90
7129;DHT22;3606;52.930;8.644;2022-08-30T04:16:22;9.80;99.90
7129;DHT22;3606;52.930;8.644;2022-08-30T04:18:48;9.70;99.90
7129;DHT22;3606;52.930;8.644;2022-08-30T04:21:14;9.70;99.90
7129;DHT22;3606;52.930;8.644;2022-08-30T04:23:41;9.70;99.90
7129;DHT22;3606;52.930;8.644;2022-08-30T04:26:07;9.80;99.90
7129;DHT22;3606;52.930;8.644;2022-08-30T04:28:33;9.80;99.90
7129;DHT22;3606;52.930;8.644;2022-08-30T04:31:07;9.80;99.90
7129;DHT22;3606;52.930;8.644;2022-08-30T04:33:33;9.70;99.90
7129;DHT22;3606;52.930;8.644;2022-08-30T04:36:01;9.80;99.90
7129;DHT22;3606;52.930;8.644;2022-08-30T04:38:31;9.70;99.90
7129;DHT22;3606;52.930;8.644;2022-08-30T04:40:57;9.70;99.90
7129;DHT22;3606;52.930;8.644;2022-08-30T04:43:23;9.70;99.90
7129;DHT22;3606;52.930;8.644;2022-08-30T04:45:52;9.70;99.90
7129;DHT22;3606;52.930;8.644;2022-08-30T04:48:19;9.70;99.90
7129;DHT22;3606;52.930;8.644;2022-08-30T04:50:44;9.70;99.90
7129;DHT22;3606;52.930;8.644;2022-08-30T04:53:12;9.70;99.90
7129;DHT22;3606;52.930;8.644;2022-08-30T04:55:38;9.70;99.90
7129;DHT22;3606;52.930;8.644;2022-08-30T04:58:04;9.70;99.90
7129;DHT22;3606;52.930;8.644;2022-08-30T05:00:30;9.70;99.90
7129;DHT22;3606;52.930;8.644;2022-08-30T05:02:56;9.70;99.90
7129;DHT22;3606;52.930;8.644;2022-08-30T05:05:22;9.70;99.90
7129;DHT22;3606;52.930;8.644;2022-08-30T05:08:08;9.80;99.90
7129;DHT22;3606;52.930;8.644;2022-08-30T05:10:37;9.80;99.90
7129;DHT22;3606;52.930;8.644;2022-08-30T05:13:03;9.90;99.90
7129;DHT22;3606;52.930;8.644;2022-08-30T05:15:29;10.00;99.90
7129;DHT22;3606;52.930;8.644;2022-08-30T05:17:54;10.10;99.90
7129;DHT22;3606;52.930;8.644;2022-08-30T05:20:20;10.10;99.90
7129;DHT22;3606;52.930;8.644;2022-08-30T05:22:46;10.20;99.90
7129;DHT22;3606;52.930;8.644;2022-08-30T05:25:19;10.30;99.90
7129;DHT22;3606;52.930;8.644;2022-08-30T05:27:46;10.40;99.90
7129;DHT22;3606;52.930;8.644;2022-08-30T05:30:13;10.50;99.90
7129;DHT22;3606;52.930;8.644;2022-08-30T05:32:39;10.60;99.90
7129;DHT22;3606;52.930;8.644;2022-08-30T05:35:06;10.70;99.90
7129;DHT22;3606;52.930;8.644;2022-08-30T05:37:32;10.90;99.90
7129;DHT22;3606;52.930;8.644;2022-08-30T05:39:58;11.20;99.90
7129;DHT22;3606;52.930;8.644;2022-08-30T05:42:24;11.40;99.90
7129;DHT22;3606;52.930;8.644;2022-08-30T05:44:51;11.70;99.90
7129;DHT22;3606;52.930;8.644;2022-08-30T05:47:18;12.00;99.90
7129;DHT22;3606;52.930;8.644;2022-08-30T05:49:44;12.20;99.90
7129;DHT22;3606;52.930;8.644;2022-08-30T05:52:10;12.50;99.90
7129;DHT22;3606;52.930;8.644;2022-08-30T05:54:37;12.80;99.90
7129;DHT22;3606;52.930;8.644;2022-08-30T05:57:02;13.20;99.90
7129;DHT22;3606;52.930;8.644;2022-08-30T05:59:28;13.70;99.90
7129;DHT22;3606;52.930;8.644;2022-08-30T06:01:56;14.10;99.90
7129;DHT22;3606;52.930;8.644;2022-08-30T06:04:22;14.60;99.90
7129;DHT22;3606;52.930;8.644;2022-08-30T06:06:47;15.20;99.90
7129;DHT22;3606;52.930;8.644;2022-08-30T06:09:14;15.70;99.90
7129;DHT22;3606;52.930;8.644;2022-08-30T06:11:40;16.10;18.50
7129;DHT22;3606;52.930;8.644;2022-08-30T06:14:06;16.40;55.40
7129;DHT22;3606;52.930;8.644;2022-08-30T06:16:33;16.60;1.00
7129;DHT22;3606;52.930;8.644;2022-08-30T06:18:59;16.70;1.00
7129;DHT22;3606;52.930;8.644;2022-08-30T06:21:28;16.70;1.00
7129;DHT22;3606;52.930;8.644;2022-08-30T06:23:54;16.80;1.00
7129;DHT22;3606;52.930;8.644;2022-08-30T06:26:21;16.80;99.90
7129;DHT22;3606;52.930;8.644;2022-08-30T06:28:47;16.70;1.00
7129;DHT22;3606;52.930;8.644;2022-08-30T06:31:16;16.60;99.90
7129;DHT22;3606;52.930;8.644;2022-08-30T06:33:42;16.50;99.90
7129;DHT22;3606;52.930;8.644;2022-08-30T06:36:11;16.60;90.50
7129;DHT22;3606;52.930;8.644;2022-08-30T06:38:38;16.50;99.90
7129;DHT22;3606;52.930;8.644;2022-08-30T06:41:08;16.30;99.90
7129;DHT22;3606;52.930;8.644;2022-08-30T06:43:35;16.20;99.90
7129;DHT22;3606;52.930;8.644;2022-08-30T06:46:02;16.10;99.90
7129;DHT22;3606;52.930;8.644;2022-08-30T06:48:28;16.10;99.90
7129;DHT22;3606;52.930;8.644;2022-08-30T06:50:54;16.10;1.00
7129;DHT22;3606;52.930;8.644;2022-08-30T06:53:19;16.10;1.00
7129;DHT22;3606;52.930;8.644;2022-08-30T06:55:45;16.20;1.00
7129;DHT22;3606;52.930;8.644;2022-08-30T06:58:18;16.20;99.90
7129;DHT22;3606;52.930;8.644;2022-08-30T07:00:45;16.20;99.90
7129;DHT22;3606;52.930;8.644;2022-08-30T07:03:11;16.10;99.90
7129;DHT22;3606;52.930;8.644;2022-08-30T07:05:36;16.00;1.00
7129;DHT22;3606;52.930;8.644;2022-08-30T07:08:02;15.90;56.50
7129;DHT22;3606;52.930;8.644;2022-08-30T07:10:27;15.80;99.90
7129;DHT22;3606;52.930;8.644;2022-08-30T07:12:53;15.80;99.90
7129;DHT22;3606;52.930;8.644;2022-08-30T07:15:19;15.80;99.90
7129;DHT22;3606;52.930;8.644;2022-08-30T07:17:47;15.70;99.90
7129;DHT22;3606;52.930;8.644;2022-08-30T07:20:32;15.70;99.90
7129;DHT22;3606;52.930;8.644;2022-08-30T07:22:57;15.60;99.90
7129;DHT22;3606;52.930;8.644;2022-08-30T07:25:23;15.60;99.90
7129;DHT22;3606;52.930;8.644;2022-08-30T07:27:49;15.70;99.90
7129;DHT22;3606;52.930;8.644;2022-08-30T07:30:17;16.10;99.90
7129;DHT22;3606;52.930;8.644;2022-08-30T07:32:42;16.30;99.90
7129;DHT22;3606;52.930;8.644;2022-08-30T07:35:08;16.50;1.00
7129;DHT22;3606;52.930;8.644;2022-08-30T07:37:34;16.90;1.00
7129;DHT22;3606;52.930;8.644;2022-08-30T07:40:00;17.80;1.00
7129;DHT22;3606;52.930;8.644;2022-08-30T07:42:25;18.60;99.90
7129;DHT22;3606;52.930;8.644;2022-08-30T07:44:51;18.80;1.00
7129;DHT22;3606;52.930;8.644;2022-08-30T07:47:17;18.80;1.00
7129;DHT22;3606;52.930;8.644;2022-08-30T07:49:42;18.90;1.00
7129;DHT22;3606;52.930;8.644;2022-08-30T07:52:08;19.20;1.00
7129;DHT22;3606;52.930;8.644;2022-08-30T07:54:33;19.50;99.90
7129;DHT22;3606;52.930;8.644;2022-08-30T07:56:59;19.90;99.90
7129;DHT22;3606;52.930;8.644;2022-08-30T07:59:25;21.10;1.00
7129;DHT22;3606;52.930;8.644;2022-08-30T08:01:50;22.20;99.90
7129;DHT22;3606;52.930;8.644;2022-08-30T08:04:16;22.90;99.90
7129;DHT22;3606;52.930;8.644;2022-08-30T08:06:41;23.30;99.90
7129;DHT22;3606;52.930;8.644;2022-08-30T08:09:08;23.80;21.60
7129;DHT22;3606;52.930;8.644;2022-08-30T08:11:34;24.10;7.10
7129;DHT22;3606;52.930;8.644;2022-08-30T08:14:01;24.00;1.00
7129;DHT22;3606;52.930;8.644;2022-08-30T08:16:29;23.50;1.00
7129;DHT22;3606;52.930;8.644;2022-08-30T08:18:55;23.50;1.00
7129;DHT22;3606;52.930;8.644;2022-08-30T08:21:23;24.10;1.00
7129;DHT22;3606;52.930;8.644;2022-08-30T08:23:49;24.40;1.00
7129;DHT22;3606;52.930;8.644;2022-08-30T08:26:15;24.80;1.00
7129;DHT22;3606;52.930;8.644;2022-08-30T08:28:40;25.30;1.00
7129;DHT22;3606;52.930;8.644;2022-08-30T08:31:21;24.80;1.00
7129;DHT22;3606;52.930;8.644;2022-08-30T08:33:47;25.00;1.00
7129;DHT22;3606;52.930;8.644;2022-08-30T08:36:13;25.40;1.00
7129;DHT22;3606;52.930;8.644;2022-08-30T08:38:39;26.20;1.00
7129;DHT22;3606;52.930;8.644;2022-08-30T08:43:57;26.50;1.00
7129;DHT22;3606;52.930;8.644;2022-08-30T08:48:54;27.00;1.00
7129;DHT22;3606;52.930;8.644;2022-08-30T08:51:25;27.50;1.00
7129;DHT22;3606;52.930;8.644;2022-08-30T08:54:11;25.40;1.00
7129;DHT22;3606;52.930;8.644;2022-08-30T08:56:38;24.20;1.00
7129;DHT22;3606;52.930;8.644;2022-08-30T08:59:06;24.30;1.00
7129;DHT22;3606;52.930;8.644;2022-08-30T09:01:32;25.80;1.00
7129;DHT22;3606;52.930;8.644;2022-08-30T09:04:03;27.10;1.00
7129;DHT22;3606;52.930;8.644;2022-08-30T09:06:45;27.90;1.00
7129;DHT22;3606;52.930;8.644;2022-08-30T09:09:13;28.30;1.00
7129;DHT22;3606;52.930;8.644;2022-08-30T09:11:41;28.50;1.00
7129;DHT22;3606;52.930;8.644;2022-08-30T09:14:19;28.60;1.00
7129;DHT22;3606;52.930;8.644;2022-08-30T09:22:24;26.60;1.00
7129;DHT22;3606;52.930;8.644;2022-08-30T09:27:37;26.00;1.00
7129;DHT22;3606;52.930;8.644;2022-08-30T09:30:05;25.70;1.00
7129;DHT22;3606;52.930;8.644;2022-08-30T09:32:34;27.30;1.00
7129;DHT22;3606;52.930;8.644;2022-08-30T09:35:00;28.50;1.00
7129;DHT22;3606;52.930;8.644;2022-08-30T09:39:54;28.80;1.00
7129;DHT22;3606;52.930;8.644;2022-08-30T09:42:26;29.20;1.00
7129;DHT22;3606;52.930;8.644;2022-08-30T09:44:54;29.30;1.00
7129;DHT22;3606;52.930;8.644;2022-08-30T09:47:36;29.10;1.00
7129;DHT22;3606;52.930;8.644;2022-08-30T09:50:09;28.00;1.00
7129;DHT22;3606;52.930;8.644;2022-08-30T09:55:22;25.50;1.00
7129;DHT22;3606;52.930;8.644;2022-08-30T10:00:20;23.70;1.00
7129;DHT22;3606;52.930;8.644;2022-08-30T10:06:05;24.80;1.00
7129;DHT22;3606;52.930;8.644;2022-08-30T10:11:38;27.90;1.00
7129;DHT22;3606;52.930;8.644;2022-08-30T10:15:01;28.60;1.00
7129;DHT22;3606;52.930;8.644;2022-08-30T10:20:28;25.20;1.00
7129;DHT22;3606;52.930;8.644;2022-08-30T10:25:40;22.90;26.30
7129;DHT22;3606;52.930;8.644;2022-08-30T10:28:30;23.10;55.50
7129;DHT22;3606;52.930;8.644;2022-08-30T10:31:03;24.40;1.00
7129;DHT22;3606;52.930;8.644;2022-08-30T10:33:36;26.20;1.00
7129;DHT22;3606;52.930;8.644;2022-08-30T10:36:07;28.30;1.00
7129;DHT22;3606;52.930;8.644;2022-08-30T10:38:38;29.00;1.00
7129;DHT22;3606;52.930;8.644;2022-08-30T10:41:26;27.70;1.00
7129;DHT22;3606;52.930;8.644;2022-08-30T10:44:00;26.60;1.00
7129;DHT22;3606;52.930;8.644;2022-08-30T10:46:50;25.30;1.00
7129;DHT22;3606;52.930;8.644;2022-08-30T10:49:19;24.60;1.00
7129;DHT22;3606;52.930;8.644;2022-08-30T10:57:30;24.20;1.00
7129;DHT22;3606;52.930;8.644;2022-08-30T11:00:09;24.30;1.00
7129;DHT22;3606;52.930;8.644;2022-08-30T11:05:57;24.90;1.00
7129;DHT22;3606;52.930;8.644;2022-08-30T11:08:40;25.10;1.00
7129;DHT22;3606;52.930;8.644;2022-08-30T11:13:37;24.90;1.00
7129;DHT22;3606;52.930;8.644;2022-08-30T11:16:08;25.50;1.00
7129;DHT22;3606;52.930;8.644;2022-08-30T11:18:49;27.20;1.00
7129;DHT22;3606;52.930;8.644;2022-08-30T11:21:33;29.30;1.00
7129;DHT22;3606;52.930;8.644;2022-08-30T11:29:30;31.00;99.90
7129;DHT22;3606;52.930;8.644;2022-08-30T11:37:47;29.10;99.90
7129;DHT22;3606;52.930;8.644;2022-08-30T11:42:50;27.40;99.90
7129;DHT22;3606;52.930;8.644;2022-08-30T11:47:56;26.50;1.00
7129;DHT22;3606;52.930;8.644;2022-08-30T11:50:24;26.20;1.00
7129;DHT22;3606;52.930;8.644;2022-08-30T11:52:57;26.00;1.00
7129;DHT22;3606;52.930;8.644;2022-08-30T11:58:24;26.80;1.00
7129;DHT22;3606;52.930;8.644;2022-08-30T12:14:03;28.20;99.90
7129;DHT22;3606;52.930;8.644;2022-08-30T12:16:46;28.40;99.90
7129;DHT22;3606;52.930;8.644;2022-08-30T12:19:32;28.00;99.90
7129;DHT22;3606;52.930;8.644;2022-08-30T12:22:01;27.60;99.90
7129;DHT22;3606;52.930;8.644;2022-08-30T12:24:33;26.60;1.00
7129;DHT22;3606;52.930;8.644;2022-08-30T12:27:19;25.80;1.00
7129;DHT22;3606;52.930;8.644;2022-08-30T12:30:00;25.40;1.00
7129;DHT22;3606;52.930;8.644;2022-08-30T12:32:27;25.20;1.00
7129;DHT22;3606;52.930;8.644;2022-08-30T12:34:57;25.40;1.00
7129;DHT22;3606;52.930;8.644;2022-08-30T12:37:33;26.00;1.00
7129;DHT22;3606;52.930;8.644;2022-08-30T12:42:35;27.10;1.00
7129;DHT22;3606;52.930;8.644;2022-08-30T12:45:13;27.50;1.00
7129;DHT22;3606;52.930;8.644;2022-08-30T12:47:46;28.20;1.00
7129;DHT22;3606;52.930;8.644;2022-08-30T12:50:18;28.50;99.90
7129;DHT22;3606;52.930;8.644;2022-08-30T12:52:58;27.50;1.00
7129;DHT22;3606;52.930;8.644;2022-08-30T12:55:27;26.30;1.00
7129;DHT22;3606;52.930;8.644;2022-08-30T13:00:33;25.80;1.00
7129;DHT22;3606;52.930;8.644;2022-08-30T13:03:02;26.90;1.00
7129;DHT22;3606;52.930;8.644;2022-08-30T13:11:00;26.70;1.00
7129;DHT22;3606;52.930;8.644;2022-08-30T13:13:40;26.10;1.00
7129;DHT22;3606;52.930;8.644;2022-08-30T13:16:19;28.10;1.00
7129;DHT22;3606;52.930;8.644;2022-08-30T13:18:51;29.70;99.90
7129;DHT22;3606;52.930;8.644;2022-08-30T13:21:24;31.20;99.90
7129;DHT22;3606;52.930;8.644;2022-08-30T13:23:53;32.40;99.90
7129;DHT22;3606;52.930;8.644;2022-08-30T13:26:19;33.10;99.90
7129;DHT22;3606;52.930;8.644;2022-08-30T13:28:57;32.00;99.90
7129;DHT22;3606;52.930;8.644;2022-08-30T13:31:24;30.90;99.90
7129;DHT22;3606;52.930;8.644;2022-08-30T13:33:51;29.10;99.90
7129;DHT22;3606;52.930;8.644;2022-08-30T13:36:19;29.60;99.90
7129;DHT22;3606;52.930;8.644;2022-08-30T13:38:46;29.20;99.90
7129;DHT22;3606;52.930;8.644;2022-08-30T13:41:13;27.80;99.90
7129;DHT22;3606;52.930;8.644;2022-08-30T13:43:38;27.10;99.90
7129;DHT22;3606;52.930;8.644;2022-08-30T13:46:04;26.50;99.90
7129;DHT22;3606;52.930;8.644;2022-08-30T13:48:31;26.00;99.90
7129;DHT22;3606;52.930;8.644;2022-08-30T13:50:57;25.80;1.00
7129;DHT22;3606;52.930;8.644;2022-08-30T13:53:22;25.60;1.00
7129;DHT22;3606;52.930;8.644;2022-08-30T13:55:48;25.30;1.00
7129;DHT22;3606;52.930;8.644;2022-08-30T13:58:14;25.10;1.00
7129;DHT22;3606;52.930;8.644;2022-08-30T14:00:41;25.30;1.00
7129;DHT22;3606;52.930;8.644;2022-08-30T14:03:07;25.30;1.00
7129;DHT22;3606;52.930;8.644;2022-08-30T14:05:36;25.20;1.00
7129;DHT22;3606;52.930;8.644;2022-08-30T14:08:03;25.20;1.00
7129;DHT22;3606;52.930;8.644;2022-08-30T14:10:31;25.20;1.00
7129;DHT22;3606;52.930;8.644;2022-08-30T14:12:57;25.30;1.00
7129;DHT22;3606;52.930;8.644;2022-08-30T14:15:22;25.50;1.00
7129;DHT22;3606;52.930;8.644;2022-08-30T14:17:48;25.60;1.00
7129;DHT22;3606;52.930;8.644;2022-08-30T14:20:13;25.80;1.00
7129;DHT22;3606;52.930;8.644;2022-08-30T14:22:39;25.90;1.00
7129;DHT22;3606;52.930;8.644;2022-08-30T14:25:05;26.00;1.00
7129;DHT22;3606;52.930;8.644;2022-08-30T14:27:30;25.80;99.90
7129;DHT22;3606;52.930;8.644;2022-08-30T14:29:57;25.70;1.00
7129;DHT22;3606;52.930;8.644;2022-08-30T14:32:22;25.70;1.00
7129;DHT22;3606;52.930;8.644;2022-08-30T14:34:48;26.10;1.00
7129;DHT22;3606;52.930;8.644;2022-08-30T14:37:14;27.10;99.90
7129;DHT22;3606;52.930;8.644;2022-08-30T14:39:40;27.30;99.90
7129;DHT22;3606;52.930;8.644;2022-08-30T14:42:06;26.90;99.90
7129;DHT22;3606;52.930;8.644;2022-08-30T14:44:32;27.90;99.90
7129;DHT22;3606;52.930;8.644;2022-08-30T14:46:59;29.50;99.90
7129;DHT22;3606;52.930;8.644;2022-08-30T14:49:25;29.70;99.90
7129;DHT22;3606;52.930;8.644;2022-08-30T14:51:52;28.70;99.90
7129;DHT22;3606;52.930;8.644;2022-08-30T14:54:21;27.60;99.90
7129;DHT22;3606;52.930;8.644;2022-08-30T14:56:47;26.50;99.90
7129;DHT22;3606;52.930;8.644;2022-08-30T14:59:13;25.80;99.90
7129;DHT22;3606;52.930;8.644;2022-08-30T15:01:39;25.30;1.00
7129;DHT22;3606;52.930;8.644;2022-08-30T15:04:07;24.90;1.00
7129;DHT22;3606;52.930;8.644;2022-08-30T15:06:33;24.70;1.00
7129;DHT22;3606;52.930;8.644;2022-08-30T15:08:59;24.40;1.00
7129;DHT22;3606;52.930;8.644;2022-08-30T15:11:25;24.30;1.00
7129;DHT22;3606;52.930;8.644;2022-08-30T15:13:51;24.20;1.00
7129;DHT22;3606;52.930;8.644;2022-08-30T15:16:25;24.20;1.00
7129;DHT22;3606;52.930;8.644;2022-08-30T15:18:52;24.60;1.00
7129;DHT22;3606;52.930;8.644;2022-08-30T15:21:23;24.80;1.00
7129;DHT22;3606;52.930;8.644;2022-08-30T15:23:48;25.70;1.00
7129;DHT22;3606;52.930;8.644;2022-08-30T15:26:14;27.20;99.90
7129;DHT22;3606;52.930;8.644;2022-08-30T15:28:40;28.60;99.90
7129;DHT22;3606;52.930;8.644;2022-08-30T15:31:05;29.10;99.90
7129;DHT22;3606;52.930;8.644;2022-08-30T15:33:31;28.00;99.90
7129;DHT22;3606;52.930;8.644;2022-08-30T15:35:59;27.10;99.90
7129;DHT22;3606;52.930;8.644;2022-08-30T15:38:26;26.50;99.90
7129;DHT22;3606;52.930;8.644;2022-08-30T15:40:52;25.90;1.00
7129;DHT22;3606;52.930;8.644;2022-08-30T15:43:18;25.30;1.00
7129;DHT22;3606;52.930;8.644;2022-08-30T15:45:43;24.90;1.00
7129;DHT22;3606;52.930;8.644;2022-08-30T15:48:09;24.40;1.00
7129;DHT22;3606;52.930;8.644;2022-08-30T15:50:35;24.20;1.00
7129;DHT22;3606;52.930;8.644;2022-08-30T15:53:02;24.00;1.00
7129;DHT22;3606;52.930;8.644;2022-08-30T15:55:28;23.80;1.00
7129;DHT22;3606;52.930;8.644;2022-08-30T15:57:53;23.60;1.00
7129;DHT22;3606;52.930;8.644;2022-08-30T16:00:19;23.60;1.00
7129;DHT22;3606;52.930;8.644;2022-08-30T16:02:44;23.50;1.00
7129;DHT22;3606;52.930;8.644;2022-08-30T16:05:13;23.30;1.00
7129;DHT22;3606;52.930;8.644;2022-08-30T16:07:39;23.10;1.00
7129;DHT22;3606;52.930;8.644;2022-08-30T16:10:05;23.00;1.00
7129;DHT22;3606;52.930;8.644;2022-08-30T16:12:31;23.00;1.00
7129;DHT22;3606;52.930;8.644;2022-08-30T16:14:56;23.00;1.00
7129;DHT22;3606;52.930;8.644;2022-08-30T16:17:22;22.80;1.00
7129;DHT22;3606;52.930;8.644;2022-08-30T16:19:48;22.60;1.00
7129;DHT22;3606;52.930;8.644;2022-08-30T16:22:14;22.50;1.00
7129;DHT22;3606;52.930;8.644;2022-08-30T16:24:40;22.30;1.00
7129;DHT22;3606;52.930;8.644;2022-08-30T16:27:07;22.20;1.00
7129;DHT22;3606;52.930;8.644;2022-08-30T16:29:33;22.20;1.00
7129;DHT22;3606;52.930;8.644;2022-08-30T16:31:59;22.10;1.00
7129;DHT22;3606;52.930;8.644;2022-08-30T16:34:24;22.00;1.00
7129;DHT22;3606;52.930;8.644;2022-08-30T16:36:50;22.00;1.00
7129;DHT22;3606;52.930;8.644;2022-08-30T16:39:16;21.90;1.00
7129;DHT22;3606;52.930;8.644;2022-08-30T16:41:43;21.90;1.00
7129;DHT22;3606;52.930;8.644;2022-08-30T16:44:09;21.80;1.00
7129;DHT22;3606;52.930;8.644;2022-08-30T16:46:35;21.70;1.00
7129;DHT22;3606;52.930;8.644;2022-08-30T16:49:02;21.70;1.00
7129;DHT22;3606;52.930;8.644;2022-08-30T16:51:31;21.60;1.00
7129;DHT22;3606;52.930;8.644;2022-08-30T16:53:59;21.60;1.00
7129;DHT22;3606;52.930;8.644;2022-08-30T16:56:26;21.60;1.00
7129;DHT22;3606;52.930;8.644;2022-08-30T16:58:52;21.60;1.00
7129;DHT22;3606;52.930;8.644;2022-08-30T17:01:20;21.70;1.00
7129;DHT22;3606;52.930;8.644;2022-08-30T17:03:46;21.80;1.00
7129;DHT22;3606;52.930;8.644;2022-08-30T17:06:12;21.80;1.00
7129;DHT22;3606;52.930;8.644;2022-08-30T17:08:37;21.80;1.00
7129;DHT22;3606;52.930;8.644;2022-08-30T17:11:03;21.80;1.00
7129;DHT22;3606;52.930;8.644;2022-08-30T17:13:29;21.70;1.00
7129;DHT22;3606;52.930;8.644;2022-08-30T17:15:55;21.60;1.00
7129;DHT22;3606;52.930;8.644;2022-08-30T17:18:21;21.40;1.00
7129;DHT22;3606;52.930;8.644;2022-08-30T17:20:47;21.20;20.50
7129;DHT22;3606;52.930;8.644;2022-08-30T17:23:12;21.20;52.20
7129;DHT22;3606;52.930;8.644;2022-08-30T17:25:39;21.10;70.80
7129;DHT22;3606;52.930;8.644;2022-08-30T17:28:04;20.90;59.20
7129;DHT22;3606;52.930;8.644;2022-08-30T17:30:30;20.70;96.30
7129;DHT22;3606;52.930;8.644;2022-08-30T17:32:56;20.60;99.90
7129;DHT22;3606;52.930;8.644;2022-08-30T17:35:22;20.50;99.90
7129;DHT22;3606;52.930;8.644;2022-08-30T17:37:48;20.40;99.90
7129;DHT22;3606;52.930;8.644;2022-08-30T17:40:14;20.20;99.90
7129;DHT22;3606;52.930;8.644;2022-08-30T17:42:39;20.10;99.90
7129;DHT22;3606;52.930;8.644;2022-08-30T17:45:08;20.00;99.90